RYR96SW EBCI-EPWR
Flight info
| Callsign | RYR96SW |
|---|---|
| Flight time | N/A |
| Altitude | 35000 |
| Route | SPI8X SPI Y862 KENUM N853 ONUNE DCT PODER DCT TOLTA DCT BEBKU DCT LASIS Z419 VAGNI VAGNI1U |
| Aircraft | B738/M-SDE2E3FGHIRWXY/LB1 |
Departure
| Time | N/A |
|---|---|
| Airport | Brussels South Charleroi Airport (EBCI) |
Arrival
| Time | 2026-04-30 18:05 |
|---|---|
| Airport | Copernicus Wrocław Airport (EPWR) |
| Time | Latitude | Longitude | Altitude | Speed | Heading |
|---|---|---|---|---|---|
| 2026-04-30 17:39 | 51.41354 | 14.83186 | 35420 ft | 419 kts | 88° |
| 2026-04-30 17:42 | 51.35405 | 15.29127 | 34965 ft | 433 kts | 97° |
| 2026-04-30 17:42 | 51.33143 | 15.42965 | 32965 ft | 428 kts | 96° |
| 2026-04-30 17:43 | 51.31628 | 15.52177 | 31507 ft | 428 kts | 96° |
| 2026-04-30 17:44 | 51.29337 | 15.66020 | 28976 ft | 430 kts | 97° |
| 2026-04-30 17:44 | 51.27018 | 15.79906 | 26395 ft | 431 kts | 97° |
| 2026-04-30 17:46 | 51.23057 | 16.02322 | 23079 ft | 422 kts | 104° |
| 2026-04-30 17:47 | 51.18831 | 16.17900 | 20710 ft | 409 kts | 106° |
| 2026-04-30 17:48 | 51.14479 | 16.34584 | 17780 ft | 407 kts | 107° |
| 2026-04-30 17:48 | 51.11245 | 16.46881 | 15863 ft | 395 kts | 108° |
| 2026-04-30 17:49 | 51.07294 | 16.62913 | 13267 ft | 383 kts | 104° |
| 2026-04-30 17:50 | 51.03318 | 16.78201 | 11089 ft | 369 kts | 112° |
| 2026-04-30 17:51 | 51.00088 | 16.88533 | 10650 ft | 330 kts | 111° |
| 2026-04-30 17:52 | 50.97216 | 16.97892 | 10238 ft | 299 kts | 111° |
| 2026-04-30 17:53 | 50.92925 | 17.11800 | 9148 ft | 274 kts | 111° |
| 2026-04-30 17:54 | 50.89612 | 17.22465 | 8253 ft | 259 kts | 111° |
| 2026-04-30 17:55 | 50.86591 | 17.32137 | 7816 ft | 230 kts | 111° |
| 2026-04-30 17:56 | 50.88788 | 17.39486 | 7170 ft | 211 kts | 26° |
| 2026-04-30 17:57 | 50.92883 | 17.41162 | 6407 ft | 215 kts | 332° |
| 2026-04-30 17:58 | 50.95741 | 17.35523 | 5739 ft | 221 kts | 308° |
| 2026-04-30 17:59 | 50.98610 | 17.26992 | 5238 ft | 222 kts | 299° |
| 2026-04-30 18:00 | 51.01243 | 17.18270 | 4364 ft | 215 kts | 298° |
| 2026-04-30 18:00 | 51.03114 | 17.12086 | 3504 ft | 199 kts | 298° |
| 2026-04-30 18:01 | 51.04283 | 17.08232 | 2978 ft | 189 kts | 298° |
| 2026-04-30 18:02 | 51.05846 | 17.03088 | 2268 ft | 158 kts | 298° |
| 2026-04-30 18:02 | 51.07234 | 16.98523 | 1664 ft | 148 kts | 297° |
| 2026-04-30 18:03 | 51.08578 | 16.94083 | 1031 ft | 147 kts | 297° |
| 2026-04-30 18:04 | 51.09939 | 16.89640 | 422 ft | 147 kts | 297° |
| 2026-04-30 18:05 | 51.10686 | 16.87247 | 402 ft | 13 kts | 329° |
| 2026-04-30 18:06 | 51.10949 | 16.87462 | 402 ft | 8 kts | 96° |
| 2026-04-30 18:07 | 51.10859 | 16.87763 | 401 ft | 8 kts | 116° |
| 2026-04-30 18:08 | 51.10830 | 16.87960 | 401 ft | 5 kts | 34° |
| 2026-04-30 18:09 | 51.10872 | 16.87993 | 402 ft | 0 kts | 26° |
| 2026-04-30 18:11 | 51.10872 | 16.87992 | 402 ft | 0 kts | 26° |